Time;durP1;ratioP1;P1;durP2;ratioP2;P2;SDS_P1;SDS_P2;PMS_P1;PMS_P2;Temp;Humidity;BMP_temperature;BMP_pressure;BME280_temperature;BME280_humidity;BME280_pressure;Samples;Min_cycle;Max_cycle;Signal;HPM_P1;HPM_P2
2022/01/10 00:00:41;;;;;;;3.10;2.53;;;;;;;9.45;64.81;92973.28;5077554;28;20856;-76
2022/01/10 00:03:08;;;;;;;5.00;2.57;;;;;;;9.33;66.28;92975.09;5066934;28;20415;-76
2022/01/10 00:05:34;;;;;;;2.93;2.60;;;;;;;9.53;65.49;92975.53;5049049;28;20440;-75
2022/01/10 00:08:02;;;;;;;3.17;2.90;;;;;;;9.84;64.31;92977.97;5066927;28;20445;-75
2022/01/10 00:10:28;;;;;;;2.30;2.13;;;;;;;9.51;66.09;92976.78;5066359;28;20532;-75
2022/01/10 00:12:54;;;;;;;3.23;2.57;;;;;;;9.89;64.29;92978.06;5048075;28;20461;-76
2022/01/10 00:15:20;;;;;;;2.37;2.10;;;;;;;9.23;66.29;92977.47;5069296;28;20463;-76
2022/01/10 00:17:46;;;;;;;4.47;3.00;;;;;;;9.71;64.92;92977.22;5066540;28;20178;-77
2022/01/10 00:20:14;;;;;;;3.37;3.07;;;;;;;9.81;64.37;92987.06;5098526;28;20533;-75
2022/01/10 00:22:45;;;;;;;2.90;2.70;;;;;;;9.95;64.02;92969.31;5089209;28;20408;-78
2022/01/10 00:25:11;;;;;;;3.37;3.07;;;;;;;9.80;65.05;92980.25;5107192;28;20797;-76
2022/01/10 00:27:36;;;;;;;3.30;3.00;;;;;;;10.08;64.40;92973.47;5099780;28;20452;-76
2022/01/10 00:30:02;;;;;;;2.90;2.70;;;;;;;9.43;66.70;92985.75;5106440;28;20180;-75
2022/01/10 00:32:27;;;;;;;6.20;3.70;;;;;;;9.38;66.45;92973.38;5106496;28;20267;-75
2022/01/10 00:34:53;;;;;;;3.50;2.77;;;;;;;9.66;65.33;92984.16;5090427;28;20541;-76
2022/01/10 00:37:18;;;;;;;4.23;3.10;;;;;;;9.66;65.98;92981.53;5074662;28;20272;-75
2022/01/10 00:39:46;;;;;;;5.23;3.07;;;;;;;9.60;66.62;92977.22;5106468;28;20209;-75
2022/01/10 00:42:13;;;;;;;2.83;2.60;;;;;;;9.53;66.34;92983.34;5106671;28;20663;-76
2022/01/10 00:44:44;;;;;;;3.50;3.20;;;;;;;9.77;65.22;92978.13;5106496;28;20427;-76
2022/01/10 00:47:10;;;;;;;2.90;2.60;;;;;;;9.36;66.75;92979.84;5083992;28;20428;-76
2022/01/10 00:49:35;;;;;;;2.93;2.70;;;;;;;9.68;65.90;92975.06;5086044;28;20453;-75
2022/01/10 00:52:01;;;;;;;2.70;2.50;;;;;;;9.45;66.27;92970.66;5086069;28;20174;-76
2022/01/10 00:54:26;;;;;;;2.87;2.67;;;;;;;9.35;66.98;92965.19;5080846;28;20191;-76
2022/01/10 00:56:52;;;;;;;3.53;2.50;;;;;;;9.27;67.79;92971.56;5095980;28;20182;-75
2022/01/10 00:59:17;;;;;;;3.10;2.80;;;;;;;9.39;67.02;92968.97;5086033;28;20198;-76
2022/01/10 01:01:42;;;;;;;3.03;2.40;;;;;;;9.43;66.57;92969.28;5085681;28;20365;-76
2022/01/10 01:04:08;;;;;;;2.70;2.50;;;;;;;9.68;65.27;92969.81;5082978;28;20177;-76
2022/01/10 01:06:34;;;;;;;3.17;2.87;;;;;;;9.52;66.35;92960.91;5106111;28;20197;-76
2022/01/10 01:09:05;;;;;;;3.33;3.03;;;;;;;9.64;66.15;92962.69;5105900;28;20652;-74
2022/01/10 01:14:06;;;;;;;3.40;3.10;;;;;;;9.05;67.54;92958.31;5098675;28;20434;-74
2022/01/10 01:24:17;;;;;;;4.80;4.30;;;;;;;9.68;65.66;92958.59;5104098;28;20410;-75
2022/01/10 01:26:50;;;;;;;4.63;3.40;;;;;;;9.07;67.89;92956.25;5092534;28;20918;-74
2022/01/10 01:29:20;;;;;;;5.60;5.03;;;;;;;9.52;66.91;92958.28;5085571;28;20608;-75
2022/01/10 01:31:45;;;;;;;5.53;5.03;;;;;;;9.49;67.27;92947.50;5089550;28;20469;-75
2022/01/10 01:34:12;;;;;;;5.83;5.30;;;;;;;9.40;67.88;92952.28;5105798;28;20407;-75
2022/01/10 01:36:38;;;;;;;6.87;5.47;;;;;;;9.55;67.98;92942.13;5094261;28;20180;-75
2022/01/10 01:39:16;;;;;;;7.07;5.10;;;;;;;9.06;69.27;92949.44;5085218;28;20436;-75
2022/01/10 01:41:42;;;;;;;6.80;5.87;;;;;;;8.94;69.56;92946.06;5098040;28;20663;-75
2022/01/10 01:44:08;;;;;;;5.63;5.00;;;;;;;9.30;69.34;92941.63;5105592;28;20440;-74
2022/01/10 01:46:35;;;;;;;5.67;5.17;;;;;;;9.47;68.67;92945.13;5094531;28;21085;-75
2022/01/10 01:49:01;;;;;;;4.70;4.30;;;;;;;9.09;70.53;92941.19;5084856;28;20242;-75
2022/01/10 01:51:26;;;;;;;7.17;4.70;;;;;;;9.14;70.42;92936.06;5103791;28;20415;-75
2022/01/10 01:53:52;;;;;;;4.37;3.90;;;;;;;9.01;69.88;92925.06;5105297;28;20430;-75
2022/01/10 01:56:18;;;;;;;5.43;4.90;;;;;;;9.41;69.09;92934.78;5084297;28;20211;-74
2022/01/10 01:58:45;;;;;;;5.17;4.30;;;;;;;9.32;69.73;92934.34;5088327;28;20462;-74
2022/01/10 02:01:16;;;;;;;5.20;4.13;;;;;;;8.71;70.72;92933.78;5105173;28;20811;-74
2022/01/10 02:03:42;;;;;;;7.20;4.33;;;;;;;9.01;70.59;92932.88;5087195;28;20431;-74
2022/01/10 02:06:08;;;;;;;5.57;4.70;;;;;;;9.27;69.45;92934.25;5104431;28;20410;-74
2022/01/10 02:08:35;;;;;;;4.80;4.40;;;;;;;9.28;69.29;92935.84;5088246;28;20427;-75
2022/01/10 02:11:07;;;;;;;3.83;3.53;;;;;;;9.05;70.37;92934.81;5086992;28;20433;-75
2022/01/10 02:13:33;;;;;;;4.63;4.23;;;;;;;9.16;70.14;92928.81;5098876;28;20455;-75
2022/01/10 02:16:04;;;;;;;4.97;4.47;;;;;;;9.30;69.40;92937.19;5082354;28;20424;-75
2022/01/10 02:18:30;;;;;;;4.60;4.10;;;;;;;9.29;69.46;92926.97;5098775;28;20920;-76
2022/01/10 02:21:00;;;;;;;4.17;3.77;;;;;;;9.06;70.78;92931.19;5105636;28;20626;-75
2022/01/10 02:23:27;;;;;;;4.27;3.50;;;;;;;9.54;68.87;92937.97;5105368;28;20171;-75
2022/01/10 02:25:53;;;;;;;4.13;3.73;;;;;;;9.29;69.57;92926.97;5074369;28;20447;-74
2022/01/10 02:28:18;;;;;;;3.83;3.43;;;;;;;9.14;70.14;92936.06;5105182;28;20475;-75
2022/01/10 02:30:44;;;;;;;4.27;3.40;;;;;;;9.25;69.27;92931.06;5105339;28;20426;-75
2022/01/10 02:33:09;;;;;;;4.10;3.47;;;;;;;9.27;70.37;92939.47;5104927;28;20624;-75
2022/01/10 02:35:46;;;;;;;3.97;3.67;;;;;;;9.14;70.05;92941.31;5094844;28;20223;-75
2022/01/10 02:38:12;;;;;;;4.30;3.90;;;;;;;9.22;70.30;92939.34;5108997;28;20169;-75
2022/01/10 02:40:37;;;;;;;4.90;4.50;;;;;;;9.15;70.76;92942.88;5107879;28;20469;-75
2022/01/10 02:43:07;;;;;;;8.03;4.57;;;;;;;8.99;70.75;92938.31;5070078;28;20247;-76
2022/01/10 02:45:33;;;;;;;5.30;4.80;;;;;;;8.97;71.11;92937.75;5103819;28;20196;-75
2022/01/10 02:47:59;;;;;;;5.07;4.57;;;;;;;8.91;71.69;92930.84;5090676;28;20412;-76
2022/01/10 02:50:25;;;;;;;8.37;4.70;;;;;;;9.13;71.17;92938.91;5108801;28;20196;-76
2022/01/10 02:52:51;;;;;;;4.90;4.40;;;;;;;9.30;70.39;92939.00;5083021;28;20178;-75
2022/01/10 02:55:17;;;;;;;4.97;4.50;;;;;;;9.13;71.95;92937.09;5090043;28;20431;-75
2022/01/10 02:57:43;;;;;;;5.90;5.23;;;;;;;9.33;71.08;92936.75;5090655;28;20427;-76
2022/01/10 03:00:18;;;;;;;6.17;5.60;;;;;;;8.84;73.36;92948.41;5070069;28;20823;-79
2022/01/10 03:02:48;;;;;;;6.50;5.90;;;;;;;8.76;73.60;92939.94;5069908;28;20472;-75
2022/01/10 03:05:14;;;;;;;12.33;6.57;;;;;;;8.83;73.28;92942.41;5108677;28;20415;-76
2022/01/10 03:07:40;;;;;;;5.37;4.87;;;;;;;8.90;72.36;92939.72;5108277;28;20438;-75
2022/01/10 03:10:06;;;;;;;6.10;5.47;;;;;;;9.30;71.53;92944.22;5108503;28;20181;-74
2022/01/10 03:12:32;;;;;;;6.70;6.00;;;;;;;9.01;71.97;92944.13;5083201;28;20181;-75
2022/01/10 03:14:59;;;;;;;11.63;5.03;;;;;;;8.94;71.67;92943.44;5087832;28;20428;-75
2022/01/10 03:17:26;;;;;;;5.83;4.97;;;;;;;8.87;73.51;92946.16;5069936;28;20416;-75
2022/01/10 03:19:52;;;;;;;8.60;6.20;;;;;;;8.88;72.35;92946.94;5087256;28;20484;-76
2022/01/10 03:22:17;;;;;;;7.10;6.37;;;;;;;9.11;71.54;92936.53;5087616;28;20910;-75
2022/01/10 03:24:43;;;;;;;7.43;5.70;;;;;;;8.73;73.18;92950.78;5087842;28;20186;-76
2022/01/10 03:27:09;;;;;;;7.60;5.50;;;;;;;9.20;71.57;92939.59;5087900;28;20203;-76
2022/01/10 03:29:53;;;;;;;5.17;4.53;;;;;;;9.20;71.49;92936.97;5071545;28;20185;-75
2022/01/10 03:32:21;;;;;;;5.40;4.90;;;;;;;8.89;72.89;92938.09;5078513;28;20182;-74
2022/01/10 03:34:47;;;;;;;5.73;4.30;;;;;;;9.05;71.67;92932.22;5087737;28;20432;-75
2022/01/10 03:37:12;;;;;;;5.43;4.47;;;;;;;8.71;71.57;92937.19;5088153;28;20412;-75
2022/01/10 03:39:39;;;;;;;5.70;4.80;;;;;;;9.03;71.73;92938.66;5094476;28;20562;-75
2022/01/10 03:42:05;;;;;;;7.27;5.07;;;;;;;8.98;72.06;92934.16;5108391;28;20178;-74
2022/01/10 03:44:30;;;;;;;4.43;3.57;;;;;;;8.46;72.89;92933.97;5108180;28;20435;-75
2022/01/10 03:46:57;;;;;;;4.30;3.90;;;;;;;8.98;72.49;92936.75;5103880;28;20493;-76
2022/01/10 03:49:23;;;;;;;5.27;4.47;;;;;;;8.78;71.77;92937.88;5087782;28;20189;-75
2022/01/10 03:51:49;;;;;;;4.90;4.50;;;;;;;8.76;72.57;92939.09;5087276;28;20431;-75
2022/01/10 03:54:14;;;;;;;5.37;4.13;;;;;;;8.91;71.72;92946.50;5087660;28;20760;-75
2022/01/10 03:56:40;;;;;;;3.83;3.47;;;;;;;8.83;72.08;92952.06;5087443;28;20188;-75
2022/01/10 03:59:05;;;;;;;3.70;3.40;;;;;;;8.97;71.67;92948.19;5087324;28;20688;-75
2022/01/10 04:01:31;;;;;;;4.67;4.17;;;;;;;8.67;72.97;92943.88;5086958;28;20224;-75
2022/01/10 04:03:57;;;;;;;4.70;4.10;;;;;;;8.84;72.16;92953.63;5087515;28;20174;-76
2022/01/10 04:06:23;;;;;;;3.77;3.47;;;;;;;9.11;71.24;92944.34;5090321;28;20516;-75
2022/01/10 04:08:49;;;;;;;4.23;3.67;;;;;;;8.97;72.45;92961.22;5108203;28;20435;-75
2022/01/10 04:11:15;;;;;;;4.47;4.13;;;;;;;8.97;72.36;92953.41;5099233;28;20216;-76
2022/01/10 04:13:40;;;;;;;4.73;4.23;;;;;;;9.27;70.31;92953.28;5087604;28;20514;-77
2022/01/10 04:16:06;;;;;;;6.97;5.20;;;;;;;9.11;71.28;92957.41;5099242;28;20197;-75
2022/01/10 04:18:32;;;;;;;4.57;3.77;;;;;;;9.06;71.39;92964.31;5107762;28;20173;-76
2022/01/10 04:20:58;;;;;;;5.07;3.70;;;;;;;8.84;72.67;92964.06;5107450;28;20264;-77
2022/01/10 04:23:24;;;;;;;3.60;3.30;;;;;;;8.85;71.86;92965.66;5103167;28;20185;-76
2022/01/10 04:25:50;;;;;;;6.10;5.40;;;;;;;8.99;71.94;92977.44;5105107;28;20435;-76
2022/01/10 04:28:16;;;;;;;5.57;4.90;;;;;;;8.65;72.76;92974.59;5106970;28;20418;-74
2022/01/10 04:30:41;;;;;;;5.10;3.83;;;;;;;8.99;71.89;92982.66;5082421;28;20445;-76
2022/01/10 04:33:07;;;;;;;5.30;4.90;;;;;;;8.84;72.05;92985.75;5075186;28;20178;-76
2022/01/10 04:35:32;;;;;;;4.83;4.07;;;;;;;9.21;70.93;92975.09;5086298;28;20188;-76
2022/01/10 04:37:58;;;;;;;5.93;3.80;;;;;;;9.02;71.82;92990.06;5086453;28;20216;-77
2022/01/10 04:40:25;;;;;;;4.87;4.27;;;;;;;8.78;72.33;92984.81;5085794;28;20213;-77
2022/01/10 04:42:51;;;;;;;4.33;3.93;;;;;;;8.75;72.96;92990.47;5094581;28;20423;-76
2022/01/10 04:45:17;;;;;;;5.40;4.60;;;;;;;8.69;72.80;92991.38;5106276;28;20449;-76
2022/01/10 04:47:43;;;;;;;6.50;4.50;;;;;;;8.52;74.12;92990.44;5106763;28;20411;-76
2022/01/10 04:52:34;;;;;;;6.30;5.60;;;;;;;8.27;75.00;92987.91;5085876;28;20190;-76
2022/01/10 04:55:01;;;;;;;5.33;4.50;;;;;;;8.72;73.95;92995.34;5085669;28;20504;-75
2022/01/10 04:57:26;;;;;;;5.70;3.90;;;;;;;8.96;72.57;93001.41;5085398;28;20239;-75
2022/01/10 04:59:52;;;;;;;7.33;5.30;;;;;;;8.64;73.72;93003.50;5080282;28;20481;-76
2022/01/10 05:02:18;;;;;;;6.23;5.63;;;;;;;8.88;72.47;93004.31;5082312;28;20189;-75
2022/01/10 05:04:45;;;;;;;13.40;5.53;;;;;;;8.38;73.63;93006.22;5085765;28;20279;-76
2022/01/10 05:07:11;;;;;;;6.17;5.57;;;;;;;8.67;72.75;93003.84;5067539;28;20951;-76
2022/01/10 05:09:37;;;;;;;6.10;4.67;;;;;;;8.33;74.05;93006.09;5070127;28;20560;-75
2022/01/10 05:12:03;;;;;;;6.80;5.63;;;;;;;8.62;73.94;93010.75;5082318;28;20420;-75
2022/01/10 05:14:28;;;;;;;11.47;7.30;;;;;;;8.54;73.92;93011.84;5067691;28;20331;-75
2022/01/10 05:16:54;;;;;;;8.70;5.60;;;;;;;8.59;73.38;93017.19;5085726;28;20405;-75
2022/01/10 05:19:19;;;;;;;5.90;5.30;;;;;;;8.52;73.87;93022.50;5076058;28;20663;-76
2022/01/10 05:21:45;;;;;;;6.17;5.67;;;;;;;8.49;74.15;93016.94;5094308;28;20182;-75
2022/01/10 05:24:10;;;;;;;6.90;6.07;;;;;;;8.46;73.54;93007.75;5085170;28;20173;-75
2022/01/10 05:26:48;;;;;;;6.80;5.70;;;;;;;8.39;73.31;93027.88;5079101;28;20568;-76
2022/01/10 05:29:14;;;;;;;6.87;5.10;;;;;;;8.17;74.43;93030.13;5076111;28;20178;-75
2022/01/10 05:31:39;;;;;;;7.60;5.50;;;;;;;8.25;74.37;93031.63;5067352;28;20785;-75
2022/01/10 05:34:05;;;;;;;6.37;5.73;;;;;;;8.40;73.56;93034.66;5067316;28;20955;-75
2022/01/10 05:36:30;;;;;;;10.30;6.40;;;;;;;8.49;73.85;93033.34;5077118;28;20214;-74
2022/01/10 05:38:56;;;;;;;7.23;6.53;;;;;;;8.55;74.16;93036.88;5070884;28;20206;-75
2022/01/10 05:41:22;;;;;;;8.60;6.90;;;;;;;8.61;73.96;93033.38;5078818;28;20197;-74
2022/01/10 05:43:48;;;;;;;7.67;6.60;;;;;;;8.35;74.20;93037.94;5075950;28;20412;-76
2022/01/10 05:46:19;;;;;;;7.00;6.30;;;;;;;8.32;75.00;93040.19;5072283;28;20479;-76
2022/01/10 05:48:47;;;;;;;7.97;6.77;;;;;;;8.29;75.22;93044.03;5078525;28;20412;-75
2022/01/10 05:51:14;;;;;;;7.63;6.70;;;;;;;8.27;74.15;93040.03;5084868;28;20432;-74
2022/01/10 05:53:40;;;;;;;8.90;7.17;;;;;;;8.04;75.39;93051.13;5084978;28;20415;-74
2022/01/10 05:56:05;;;;;;;8.60;7.80;;;;;;;8.30;74.55;93050.81;5072351;28;20439;-76
2022/01/10 05:58:31;;;;;;;9.07;7.93;;;;;;;8.53;73.52;93049.34;5084969;28;20281;-76
2022/01/10 06:00:57;;;;;;;8.30;7.00;;;;;;;8.09;76.17;93056.50;5076311;28;20570;-77
2022/01/10 06:03:22;;;;;;;12.00;8.27;;;;;;;8.38;74.53;93055.75;5084250;28;20249;-76
2022/01/10 06:05:48;;;;;;;9.83;7.80;;;;;;;8.55;73.92;93055.13;5103337;28;20256;-76
2022/01/10 06:08:13;;;;;;;8.93;7.33;;;;;;;8.56;74.48;93054.13;5084667;28;20625;-75
2022/01/10 06:10:39;;;;;;;11.87;7.40;;;;;;;8.36;74.29;93054.34;5087649;28;20178;-76
2022/01/10 06:13:05;;;;;;;8.93;6.27;;;;;;;8.29;75.24;93066.66;5068999;28;20205;-76
2022/01/10 06:15:30;;;;;;;9.50;7.90;;;;;;;8.39;73.81;93062.53;5070419;28;20273;-75
2022/01/10 06:17:56;;;;;;;7.83;6.87;;;;;;;8.32;74.42;93069.63;5088584;28;20186;-76
2022/01/10 06:20:21;;;;;;;6.57;5.93;;;;;;;8.34;75.03;93066.81;5066111;28;20234;-75
2022/01/10 06:22:47;;;;;;;9.53;6.50;;;;;;;7.74;75.61;93077.88;5084043;28;20281;-75
2022/01/10 06:25:16;;;;;;;9.77;8.07;;;;;;;8.14;75.42;93072.28;5074444;28;20190;-75
2022/01/10 06:27:41;;;;;;;10.20;7.10;;;;;;;8.22;74.77;93079.78;5073210;28;20183;-76
2022/01/10 06:30:07;;;;;;;9.37;7.23;;;;;;;8.20;75.26;93076.59;5084970;28;20798;-75
2022/01/10 06:32:33;;;;;;;9.03;8.13;;;;;;;7.86;75.63;93081.38;5083191;28;20197;-77
2022/01/10 06:34:59;;;;;;;12.93;8.47;;;;;;;8.11;75.22;93080.50;5074295;28;20425;-76
2022/01/10 06:37:25;;;;;;;8.97;7.37;;;;;;;7.94;75.91;93078.47;5088269;28;20277;-77
2022/01/10 06:39:51;;;;;;;11.03;8.70;;;;;;;8.00;75.44;93082.03;5087318;28;20217;-76
2022/01/10 06:42:18;;;;;;;9.13;8.03;;;;;;;7.94;75.86;93080.28;5079835;28;20415;-76
2022/01/10 06:44:43;;;;;;;12.60;8.40;;;;;;;8.35;74.31;93079.63;5069969;28;20771;-75
2022/01/10 06:47:09;;;;;;;9.83;8.70;;;;;;;8.43;74.76;93080.38;5078734;28;20423;-75
2022/01/10 06:49:35;;;;;;;11.43;8.90;;;;;;;8.16;75.25;93080.66;5087006;28;20188;-75
2022/01/10 06:52:00;;;;;;;12.73;9.03;;;;;;;8.39;73.60;93078.16;5087579;28;20184;-75
2022/01/10 06:54:26;;;;;;;9.97;8.60;;;;;;;8.32;74.33;93094.91;5085862;28;20201;-76
2022/01/10 06:56:51;;;;;;;9.43;8.10;;;;;;;8.18;75.89;93091.66;5087698;28;20197;-75
2022/01/10 06:59:18;;;;;;;11.63;9.37;;;;;;;8.24;75.26;93098.59;5087990;28;20467;-76
2022/01/10 07:01:45;;;;;;;11.50;9.13;;;;;;;8.53;74.30;93101.50;5087192;28;20201;-76
2022/01/10 07:04:10;;;;;;;8.80;7.90;;;;;;;8.49;73.80;93097.75;5086900;28;20420;-75
2022/01/10 07:06:36;;;;;;;9.90;8.67;;;;;;;8.43;73.55;93112.44;5084751;28;20442;-75
2022/01/10 07:09:02;;;;;;;12.90;10.20;;;;;;;8.30;74.66;93113.34;5086660;28;20698;-75
2022/01/10 07:11:27;;;;;;;11.73;8.97;;;;;;;8.33;75.02;93112.16;5066907;28;20276;-75
2022/01/10 07:13:53;;;;;;;13.67;9.77;;;;;;;7.90;75.43;93119.00;5082054;28;20200;-76
2022/01/10 07:16:19;;;;;;;11.67;9.33;;;;;;;8.30;74.22;93118.56;5069076;28;20272;-76
2022/01/10 07:18:45;;;;;;;10.77;8.27;;;;;;;8.31;74.24;93120.19;5069248;28;20276;-76
2022/01/10 07:21:11;;;;;;;10.47;8.33;;;;;;;8.48;73.32;93122.19;5085218;28;20475;-75
2022/01/10 07:23:36;;;;;;;12.50;8.90;;;;;;;8.39;73.92;93126.91;5068961;28;20556;-77
2022/01/10 07:26:02;;;;;;;12.10;9.17;;;;;;;8.81;71.76;93131.44;5073122;28;20265;-76
2022/01/10 07:28:28;;;;;;;9.70;8.53;;;;;;;8.69;72.16;93131.38;5052152;28;20178;-76
2022/01/10 07:30:53;;;;;;;13.27;8.40;;;;;;;7.95;75.60;93142.59;5086075;28;20527;-76
2022/01/10 07:33:19;;;;;;;12.80;9.27;;;;;;;8.66;74.11;93137.81;5069677;28;20213;-77
2022/01/10 07:35:44;;;;;;;9.60;8.63;;;;;;;8.72;72.84;93143.97;5088037;28;20329;-79
2022/01/10 07:38:10;;;;;;;9.23;7.63;;;;;;;8.89;72.83;93141.56;5087875;28;20210;-79
2022/01/10 07:40:36;;;;;;;12.70;10.13;;;;;;;9.08;72.00;93148.31;5068932;28;20214;-78
2022/01/10 07:43:01;;;;;;;12.67;9.23;;;;;;;9.22;71.54;93148.13;5068661;28;20181;-78
2022/01/10 07:45:27;;;;;;;10.20;8.30;;;;;;;8.84;72.34;93160.47;5069289;28;20188;-78
2022/01/10 07:47:53;;;;;;;18.33;9.27;;;;;;;8.94;72.06;93154.72;5083961;28;20243;-78
2022/01/10 07:50:18;;;;;;;13.50;9.97;;;;;;;8.55;73.69;93154.19;5069582;28;20181;-78
2022/01/10 07:52:44;;;;;;;16.03;11.70;;;;;;;8.97;71.73;93152.47;5063417;28;20922;-77
2022/01/10 07:55:13;;;;;;;11.33;9.00;;;;;;;8.98;71.99;93145.44;5083858;28;20183;-77
2022/01/10 07:57:39;;;;;;;10.20;9.10;;;;;;;8.97;72.37;93152.47;5064750;28;20174;-76
2022/01/10 08:00:06;;;;;;;12.57;9.30;;;;;;;8.96;72.19;93150.09;5062744;28;21041;-76
2022/01/10 08:02:31;;;;;;;13.63;9.50;;;;;;;9.07;71.89;93148.53;5040241;28;20666;-75
2022/01/10 08:04:57;;;;;;;11.53;8.87;;;;;;;9.32;70.65;93151.00;5044439;28;20430;-75
2022/01/10 08:07:22;;;;;;;14.00;11.10;;;;;;;8.72;73.39;93155.19;5039795;28;20293;-76
2022/01/10 08:09:48;;;;;;;14.63;11.10;;;;;;;8.36;73.61;93151.56;5034131;28;20187;-75
2022/01/10 08:12:13;;;;;;;13.90;11.53;;;;;;;8.81;72.82;93149.69;5040224;28;20220;-74
2022/01/10 08:14:39;;;;;;;19.27;14.10;;;;;;;9.04;71.06;93154.19;5059788;28;20187;-75
2022/01/10 08:17:04;;;;;;;22.00;15.23;;;;;;;8.90;71.88;93148.38;5045716;28;20190;-75
2022/01/10 08:19:33;;;;;;;24.50;16.40;;;;;;;8.97;70.91;93154.28;5041950;28;20682;-75
2022/01/10 08:22:00;;;;;;;19.60;16.10;;;;;;;9.13;71.47;93151.06;5045853;28;20506;-75
2022/01/10 08:24:26;;;;;;;20.77;16.80;;;;;;;9.09;70.78;93144.69;5056034;28;20426;-77
2022/01/10 08:26:53;;;;;;;21.60;18.57;;;;;;;8.63;71.55;93150.50;5047743;28;20418;-75
2022/01/10 08:29:18;;;;;;;21.00;15.50;;;;;;;8.67;70.60;93152.47;5063824;28;20179;-75
2022/01/10 08:31:45;;;;;;;18.20;14.20;;;;;;;8.74;70.43;93154.97;5034911;28;20423;-75
2022/01/10 08:34:11;;;;;;;14.30;11.90;;;;;;;8.30;71.37;93156.88;5029936;28;20627;-76
2022/01/10 08:36:36;;;;;;;14.60;12.07;;;;;;;7.90;71.66;93154.66;5041534;28;20427;-75
2022/01/10 08:39:05;;;;;;;13.97;11.30;;;;;;;8.32;69.97;93153.03;5042477;28;20835;-76
2022/01/10 08:41:30;;;;;;;20.40;10.83;;;;;;;8.49;68.81;93157.69;5035114;28;20193;-76
2022/01/10 08:43:56;;;;;;;11.13;8.77;;;;;;;8.30;69.54;93162.06;5049206;28;20867;-75
2022/01/10 08:46:22;;;;;;;10.87;9.37;;;;;;;8.26;68.90;93168.75;5045485;28;20199;-75
2022/01/10 08:48:48;;;;;;;11.60;8.90;;;;;;;7.71;70.54;93166.84;5031437;28;20184;-75
2022/01/10 08:51:14;;;;;;;9.93;8.10;;;;;;;7.80;70.04;93170.78;5045672;28;20504;-75
2022/01/10 08:53:39;;;;;;;10.07;7.73;;;;;;;7.67;69.77;93176.88;5055941;28;20479;-75
2022/01/10 08:56:05;;;;;;;11.03;8.67;;;;;;;7.92;68.82;93179.47;5048984;28;20214;-76
2022/01/10 08:58:34;;;;;;;8.83;7.10;;;;;;;7.89;69.81;93179.91;5051774;28;20191;-75
2022/01/10 09:01:06;;;;;;;11.67;7.73;;;;;;;7.80;70.04;93183.78;5066953;28;20297;-75
2022/01/10 09:03:33;;;;;;;9.20;8.03;;;;;;;7.85;69.84;93175.34;5075502;28;20408;-75
2022/01/10 09:05:59;;;;;;;10.17;8.47;;;;;;;8.19;68.17;93187.03;5077535;28;20427;-76
2022/01/10 09:08:31;;;;;;;10.10;7.83;;;;;;;8.49;67.45;93181.94;5060128;28;20422;-76
2022/01/10 09:10:57;;;;;;;9.30;7.80;;;;;;;7.99;68.74;93177.59;5081526;28;20424;-77
2022/01/10 09:13:24;;;;;;;11.27;8.20;;;;;;;8.16;67.96;93179.66;5082425;28;20590;-76
2022/01/10 09:15:50;;;;;;;12.43;7.73;;;;;;;8.51;67.36;93179.13;5079515;28;20442;-75
2022/01/10 09:18:16;;;;;;;9.70;7.07;;;;;;;7.63;70.40;93184.31;5065884;28;20512;-76
2022/01/10 09:20:44;;;;;;;9.53;6.70;;;;;;;8.32;67.97;93189.50;5067692;28;20252;-75
2022/01/10 09:23:10;;;;;;;7.73;6.90;;;;;;;8.05;68.78;93180.38;5082088;28;20444;-76
2022/01/10 09:25:36;;;;;;;11.53;8.27;;;;;;;8.16;67.28;93174.47;5056697;28;20929;-76
2022/01/10 09:28:01;;;;;;;9.33;7.40;;;;;;;8.30;67.75;93186.31;5060420;28;20425;-77
2022/01/10 09:30:27;;;;;;;10.70;7.33;;;;;;;8.02;68.09;93185.00;5067377;28;20216;-77
2022/01/10 09:32:54;;;;;;;8.10;6.90;;;;;;;8.04;69.35;93189.19;5067465;28;20189;-77
2022/01/10 09:35:20;;;;;;;14.03;8.80;;;;;;;8.10;68.28;93185.72;5064162;28;20432;-75
2022/01/10 09:37:48;;;;;;;8.53;7.30;;;;;;;8.43;68.03;93175.00;5074393;28;20435;-76
2022/01/10 09:40:13;;;;;;;7.23;6.53;;;;;;;7.81;69.52;93185.38;5065514;28;20489;-75
2022/01/10 09:42:39;;;;;;;8.73;7.83;;;;;;;7.75;69.92;93183.63;5055885;28;20448;-75
2022/01/10 09:45:06;;;;;;;11.70;7.83;;;;;;;8.13;68.24;93187.91;5083709;28;20170;-75
2022/01/10 09:47:32;;;;;;;11.70;9.33;;;;;;;8.02;68.55;93189.41;5066781;28;20281;-75
2022/01/10 09:49:58;;;;;;;13.30;7.73;;;;;;;8.02;68.57;93190.22;5063659;28;20852;-76
2022/01/10 09:52:24;;;;;;;9.23;8.00;;;;;;;7.96;70.40;93185.84;5058904;28;20436;-78
2022/01/10 09:54:52;;;;;;;9.83;7.80;;;;;;;8.00;69.51;93194.81;5060152;28;20258;-76
2022/01/10 09:57:17;;;;;;;16.30;8.60;;;;;;;8.06;70.14;93198.38;5048384;28;20421;-75
2022/01/10 09:59:43;;;;;;;17.80;10.10;;;;;;;8.19;69.26;93185.25;5084695;28;20482;-76
2022/01/10 10:02:11;;;;;;;13.33;10.17;;;;;;;8.01;69.74;93191.22;5073748;28;20202;-76
2022/01/10 10:04:37;;;;;;;12.30;9.20;;;;;;;8.65;67.46;93185.78;5058144;28;20448;-75
2022/01/10 10:07:06;;;;;;;11.30;9.67;;;;;;;8.33;69.07;93196.31;5063906;28;20503;-74
2022/01/10 10:09:32;;;;;;;17.20;12.27;;;;;;;8.38;69.08;93193.88;5066000;28;20432;-74
2022/01/10 10:12:01;;;;;;;17.77;12.10;;;;;;;8.53;68.62;93184.91;5066232;28;20432;-76
2022/01/10 10:14:27;;;;;;;15.87;12.60;;;;;;;8.49;68.69;93189.75;5056624;28;20439;-75
2022/01/10 10:16:56;;;;;;;16.17;12.93;;;;;;;8.70;68.03;93183.31;5059837;28;20440;-76
2022/01/10 10:19:25;;;;;;;17.67;12.80;;;;;;;8.87;68.15;93180.88;5065653;28;20224;-76
2022/01/10 10:21:51;;;;;;;15.63;13.30;;;;;;;8.91;68.55;93186.47;5066389;28;20454;-76
2022/01/10 10:24:18;;;;;;;18.97;14.50;;;;;;;8.99;67.74;93191.38;5053975;28;20409;-76
2022/01/10 10:26:44;;;;;;;14.70;12.47;;;;;;;8.79;68.40;93184.59;5084335;28;21130;-76
2022/01/10 10:29:13;;;;;;;14.93;12.80;;;;;;;9.15;67.45;93180.31;5068206;28;20416;-77
2022/01/10 10:31:46;;;;;;;13.57;12.07;;;;;;;8.88;68.32;93181.69;5066625;28;20454;-76
2022/01/10 10:34:17;;;;;;;14.73;12.93;;;;;;;8.84;68.14;93181.34;5071237;28;20411;-77
2022/01/10 10:36:43;;;;;;;17.97;12.67;;;;;;;9.24;66.03;93180.00;5067097;28;20439;-77
2022/01/10 10:39:10;;;;;;;14.60;11.30;;;;;;;8.99;67.57;93175.72;5062545;28;20459;-76
2022/01/10 10:41:37;;;;;;;13.53;11.63;;;;;;;8.90;68.71;93175.25;5066429;28;20198;-76
2022/01/10 10:44:04;;;;;;;15.00;11.07;;;;;;;8.78;68.89;93172.59;5078813;28;20438;-76
2022/01/10 10:46:30;;;;;;;28.07;11.13;;;;;;;8.90;68.22;93171.84;5065771;28;20412;-76
2022/01/10 10:49:04;;;;;;;14.90;11.63;;;;;;;8.84;68.33;93177.94;5068184;28;20427;-75
2022/01/10 10:51:31;;;;;;;14.83;11.10;;;;;;;9.07;67.77;93174.59;5069195;28;20204;-76
2022/01/10 10:54:05;;;;;;;16.63;11.83;;;;;;;8.98;68.36;93185.38;5087272;28;20418;-75
2022/01/10 10:56:33;;;;;;;17.57;12.50;;;;;;;8.84;69.34;93185.75;5076975;28;20447;-74
2022/01/10 10:58:59;;;;;;;16.57;13.67;;;;;;;9.26;68.94;93189.22;5060363;28;20452;-75
2022/01/10 11:01:25;;;;;;;12.57;11.20;;;;;;;8.51;70.71;93194.75;5067382;28;20455;-76
2022/01/10 11:03:51;;;;;;;18.47;12.67;;;;;;;8.96;68.72;93187.41;5087979;28;20475;-76
2022/01/10 11:06:17;;;;;;;16.00;12.60;;;;;;;9.06;68.72;93197.31;5088013;28;20268;-76
2022/01/10 11:08:44;;;;;;;15.67;13.70;;;;;;;9.15;68.55;93193.38;5079938;28;20182;-77
2022/01/10 11:11:15;;;;;;;12.60;11.27;;;;;;;8.70;69.91;93195.56;5064805;28;20452;-76
2022/01/10 11:13:41;;;;;;;11.20;9.97;;;;;;;8.82;69.44;93198.22;5081555;28;20546;-76
2022/01/10 11:16:09;;;;;;;11.77;10.10;;;;;;;8.72;68.29;93194.31;5082916;28;20489;-76
2022/01/10 11:18:34;;;;;;;11.03;9.77;;;;;;;9.05;68.47;93190.50;5060133;28;20846;-76
2022/01/10 11:21:01;;;;;;;10.10;9.10;;;;;;;8.40;69.64;93202.28;5061405;28;20464;-76
2022/01/10 11:23:27;;;;;;;9.30;7.77;;;;;;;8.38;69.68;93204.31;5079135;28;20192;-76
2022/01/10 11:25:57;;;;;;;9.10;7.83;;;;;;;7.66;71.68;93205.72;5063545;28;20485;-77
2022/01/10 11:28:25;;;;;;;13.70;10.70;;;;;;;8.15;70.04;93206.72;5063438;28;20467;-77
2022/01/10 11:31:04;;;;;;;11.33;7.80;;;;;;;7.66;71.43;93205.72;5060639;28;20421;-76
2022/01/10 11:33:35;;;;;;;12.00;7.90;;;;;;;8.11;70.42;93208.94;5081384;28;20412;-76
2022/01/10 11:36:04;;;;;;;9.70;7.97;;;;;;;8.27;70.14;93207.63;5071323;28;20523;-77
2022/01/10 11:38:44;;;;;;;10.50;7.20;;;;;;;8.43;69.43;93205.47;5077694;28;20427;-76
2022/01/10 11:41:31;;;;;;;7.73;6.50;;;;;;;8.56;68.10;93203.53;5051106;28;20464;-76
2022/01/10 11:44:11;;;;;;;10.17;7.93;;;;;;;8.69;68.43;93204.38;5086643;28;20439;-79
2022/01/10 11:46:39;;;;;;;8.43;6.40;;;;;;;8.54;68.96;93197.72;5087421;28;20419;-78